createdAt,value
2024-01-22T00:00:55.086Z,84.09
2024-01-22T00:01:55.033Z,86.70
2024-01-22T00:02:55.143Z,84.65
2024-01-22T00:03:55.158Z,87.33
2024-01-22T00:04:55.230Z,86.43
2024-01-22T00:05:55.383Z,81.98
2024-01-22T00:06:55.363Z,86.78
2024-01-22T00:07:55.369Z,87.30
2024-01-22T00:08:55.457Z,83.67
2024-01-22T00:09:55.511Z,86.89
2024-01-22T00:10:55.555Z,87.77
2024-01-22T00:11:55.675Z,86.04
2024-01-22T00:12:55.718Z,83.22
2024-01-22T00:13:55.775Z,85.46
2024-01-22T00:14:55.915Z,84.08
2024-01-22T00:15:55.916Z,86.85
2024-01-22T00:16:55.953Z,89.48
2024-01-22T00:17:56.089Z,85.49
2024-01-22T00:18:56.272Z,83.74
2024-01-22T00:19:56.250Z,85.71
2024-01-22T00:20:56.230Z,85.78
2024-01-22T00:21:56.273Z,84.25
2024-01-22T00:22:56.335Z,84.01
2024-01-22T00:23:56.414Z,85.82
2024-01-22T00:24:56.447Z,83.82
2024-01-22T00:25:56.502Z,81.94
2024-01-22T00:26:56.614Z,83.98
2024-01-22T00:27:56.736Z,88.02
2024-01-22T00:28:56.696Z,83.79
2024-01-22T00:29:56.777Z,84.73
2024-01-22T00:30:56.806Z,84.34
2024-01-22T00:31:56.845Z,82.85
2024-01-22T00:32:57.047Z,87.27
2024-01-22T00:33:57.043Z,83.02
2024-01-22T00:34:57.099Z,84.02
2024-01-22T00:35:57.116Z,84.76
2024-01-22T00:36:57.195Z,82.35
2024-01-22T00:37:57.268Z,83.29
2024-01-22T00:38:57.356Z,85.87
2024-01-22T00:39:57.375Z,85.11
2024-01-22T00:40:57.456Z,82.85
2024-01-22T00:41:57.518Z,83.92
2024-01-22T00:42:57.554Z,82.59
2024-01-22T00:43:57.608Z,84.79
2024-01-22T00:44:57.703Z,82.90
2024-01-22T00:45:57.697Z,82.63
2024-01-22T00:46:57.792Z,82.33
2024-01-22T00:47:57.892Z,83.00
2024-01-22T00:48:57.968Z,84.67
2024-01-22T00:49:57.976Z,80.15
2024-01-22T00:50:58.066Z,82.27
2024-01-22T00:51:58.098Z,83.08
2024-01-22T00:52:58.169Z,81.52
2024-01-22T00:53:58.297Z,83.84
2024-01-22T00:54:58.271Z,83.54
2024-01-22T00:55:58.347Z,82.59
2024-01-22T00:56:58.440Z,84.21
2024-01-22T00:57:58.446Z,82.54
2024-01-22T00:58:58.539Z,81.89
2024-01-22T00:59:58.690Z,82.11
2024-01-22T01:00:58.701Z,81.84
2024-01-22T01:01:58.753Z,83.14
2024-01-22T01:02:58.898Z,81.09
2024-01-22T01:03:58.877Z,83.57
2024-01-22T01:04:58.939Z,85.41
2024-01-22T01:05:58.990Z,82.12
2024-01-22T01:06:59.042Z,81.64
2024-01-22T01:07:59.108Z,84.03
2024-01-22T01:08:59.157Z,83.82
2024-01-22T01:09:59.188Z,81.78
2024-01-22T01:10:59.287Z,80.60
2024-01-22T01:11:59.394Z,80.79
2024-01-22T01:12:59.382Z,79.78
2024-01-22T01:13:59.431Z,78.88
2024-01-22T01:14:59.532Z,79.14
2024-01-22T01:15:59.579Z,78.85
2024-01-22T01:16:59.650Z,81.09
2024-01-22T01:17:59.847Z,80.11
2024-01-22T01:18:59.905Z,81.67
2024-01-22T01:19:59.841Z,82.23
2024-01-22T01:20:59.929Z,82.13
2024-01-22T01:21:59.955Z,78.28
2024-01-22T01:23:00.033Z,79.24
2024-01-22T01:24:00.156Z,78.78
2024-01-22T01:25:00.238Z,78.45
2024-01-22T01:26:00.233Z,79.39
2024-01-22T01:27:00.323Z,80.63
2024-01-22T01:28:00.411Z,77.76
2024-01-22T01:29:00.442Z,80.05
2024-01-22T01:30:00.619Z,80.87
2024-01-22T01:31:00.588Z,76.12
2024-01-22T01:32:00.659Z,79.17
2024-01-22T01:33:00.851Z,77.18
2024-01-22T01:34:00.938Z,81.53
2024-01-22T01:35:00.850Z,78.78
2024-01-22T01:36:00.931Z,78.23
2024-01-22T01:37:01.007Z,81.33
2024-01-22T01:38:01.077Z,76.01
2024-01-22T01:39:01.184Z,80.79
2024-01-22T01:40:01.268Z,80.76
2024-01-22T01:41:01.299Z,80.34
2024-01-22T01:42:01.438Z,77.81
2024-01-22T01:43:01.391Z,76.38
2024-01-22T01:44:01.476Z,80.52
2024-01-22T01:45:01.641Z,78.13
2024-01-22T01:46:01.666Z,79.61
2024-01-22T01:47:01.716Z,81.68
2024-01-22T01:48:01.882Z,81.72
2024-01-22T01:49:02.046Z,78.11
2024-01-22T01:50:01.942Z,80.05
2024-01-22T01:51:02.134Z,79.39
2024-01-22T01:52:02.067Z,77.54
2024-01-22T01:53:02.116Z,78.60
2024-01-22T01:54:02.230Z,80.00
2024-01-22T01:55:02.226Z,79.74
2024-01-22T01:56:02.332Z,78.99
2024-01-22T01:57:02.464Z,78.10
2024-01-22T01:58:05.846Z,79.82
2024-01-22T01:59:02.471Z,80.00
2024-01-22T02:00:02.681Z,79.30
2024-01-22T02:01:02.654Z,80.07
2024-01-22T02:02:02.471Z,77.79
2024-01-22T02:03:02.574Z,78.97
2024-01-22T02:04:02.514Z,75.59
2024-01-22T02:05:02.495Z,77.65
2024-01-22T02:06:02.575Z,78.79
2024-01-22T02:07:02.465Z,80.01
2024-01-22T02:08:02.493Z,78.28
2024-01-22T02:09:02.535Z,77.62
2024-01-22T02:10:02.466Z,78.68
2024-01-22T02:11:02.468Z,79.40
2024-01-22T02:12:02.542Z,80.58
2024-01-22T02:13:02.483Z,75.97
2024-01-22T02:14:02.473Z,77.37
2024-01-22T02:15:02.487Z,78.69
2024-01-22T02:16:02.511Z,76.43
2024-01-22T02:17:02.493Z,77.98
2024-01-22T02:18:02.668Z,76.47
2024-01-22T02:19:02.555Z,76.08
2024-01-22T02:20:02.477Z,78.28
2024-01-22T02:21:02.541Z,78.97
2024-01-22T02:22:02.589Z,78.32
2024-01-22T02:23:02.625Z,78.52
2024-01-22T02:24:02.742Z,77.37
2024-01-22T02:25:02.773Z,78.58
2024-01-22T02:26:02.834Z,77.84
2024-01-22T02:27:02.986Z,76.46
2024-01-22T02:28:03.193Z,76.66
2024-01-22T02:29:03.079Z,77.06
2024-01-22T02:30:03.142Z,76.16
2024-01-22T02:31:03.197Z,78.71
2024-01-22T02:32:03.275Z,78.84
2024-01-22T02:33:03.457Z,76.17
2024-01-22T02:34:03.585Z,80.44
2024-01-22T02:35:03.460Z,79.51
2024-01-22T02:36:04.224Z,78.46
2024-01-22T02:37:03.622Z,76.32
2024-01-22T02:38:03.686Z,77.25
2024-01-22T02:39:03.767Z,78.37
2024-01-22T02:40:03.787Z,77.35
2024-01-22T02:41:03.885Z,75.26
2024-01-22T02:42:03.996Z,77.68
2024-01-22T02:43:03.971Z,76.12
2024-01-22T02:44:04.061Z,76.34
2024-01-22T02:45:04.251Z,79.64
2024-01-22T02:46:04.187Z,76.93
2024-01-22T02:47:04.279Z,78.77
2024-01-22T02:48:04.460Z,78.18
2024-01-22T02:49:04.569Z,75.41
2024-01-22T02:50:04.484Z,76.38
2024-01-22T02:51:04.559Z,78.14
2024-01-22T02:52:04.632Z,76.74
2024-01-22T02:53:04.654Z,79.19
2024-01-22T02:54:04.835Z,78.07
2024-01-22T02:55:04.821Z,80.49
2024-01-22T02:56:04.900Z,79.12
2024-01-22T02:57:05.020Z,79.69
2024-01-22T02:58:05.036Z,77.82
2024-01-22T02:59:05.137Z,75.72
2024-01-22T03:00:05.255Z,80.56
2024-01-22T03:01:05.336Z,79.29
2024-01-22T03:02:05.329Z,77.45
2024-01-22T03:03:05.407Z,81.91
2024-01-22T03:04:05.501Z,79.40
2024-01-22T03:05:05.557Z,80.46
2024-01-22T03:06:05.677Z,77.35
2024-01-22T03:07:05.756Z,79.62
2024-01-22T03:08:05.726Z,76.03
2024-01-22T03:09:05.825Z,74.38
2024-01-22T03:10:06.607Z,79.12
2024-01-22T03:11:05.973Z,75.77
2024-01-22T03:12:06.111Z,81.20
2024-01-22T03:13:06.054Z,80.03
2024-01-22T03:14:06.158Z,77.71
2024-01-22T03:15:06.317Z,79.23
2024-01-22T03:16:06.325Z,78.71
2024-01-22T03:17:06.372Z,78.72
2024-01-22T03:18:06.521Z,78.63
2024-01-22T03:19:06.660Z,77.72
2024-01-22T03:20:06.574Z,77.16
2024-01-22T03:21:06.733Z,77.49
2024-01-22T03:22:06.709Z,77.97
2024-01-22T03:23:06.759Z,80.33
2024-01-22T03:24:06.851Z,79.22
2024-01-22T03:25:06.850Z,78.56
2024-01-22T03:26:06.955Z,76.78
2024-01-22T03:27:07.068Z,78.89
2024-01-22T03:28:07.044Z,76.75
2024-01-22T03:29:07.137Z,79.62
2024-01-22T03:30:07.283Z,80.10
2024-01-22T03:31:07.246Z,79.09
2024-01-22T03:32:07.317Z,76.57
2024-01-22T03:33:07.443Z,80.50
2024-01-22T03:34:07.537Z,78.95
2024-01-22T03:35:07.459Z,79.33
2024-01-22T03:36:07.543Z,77.88
2024-01-22T03:37:07.590Z,78.14
2024-01-22T03:38:07.629Z,76.63
2024-01-22T03:39:10.222Z,81.84
2024-01-22T03:40:07.713Z,76.31
2024-01-22T03:41:07.685Z,76.74
2024-01-22T03:42:07.740Z,80.63
2024-01-22T03:43:07.708Z,79.11
2024-01-22T03:44:07.685Z,79.65
2024-01-22T03:45:07.765Z,78.30
2024-01-22T03:46:07.718Z,75.99
2024-01-22T03:47:07.677Z,77.80
2024-01-22T03:48:07.794Z,76.17
2024-01-22T03:49:07.808Z,76.78
2024-01-22T03:50:07.765Z,78.96
2024-01-22T03:51:07.777Z,77.23
2024-01-22T03:52:07.719Z,80.23
2024-01-22T03:53:07.695Z,79.11
2024-01-22T03:54:07.740Z,74.57
2024-01-22T03:55:07.700Z,78.60
2024-01-22T03:56:07.727Z,79.77
2024-01-22T03:57:07.793Z,78.09
2024-01-22T03:58:07.737Z,79.60
2024-01-22T03:59:07.705Z,77.00
2024-01-22T04:00:07.757Z,76.02
2024-01-22T04:01:07.771Z,76.68
2024-01-22T04:02:07.713Z,76.86
2024-01-22T04:03:07.774Z,75.83
2024-01-22T04:04:07.755Z,77.04
2024-01-22T04:05:07.735Z,76.47
2024-01-22T04:06:07.833Z,78.03
2024-01-22T04:07:07.829Z,78.17
2024-01-22T04:08:07.723Z,78.49
2024-01-22T04:09:07.747Z,76.85
2024-01-22T04:10:07.724Z,74.15
2024-01-22T04:11:07.712Z,75.90
2024-01-22T04:12:07.771Z,77.39
2024-01-22T04:13:07.744Z,76.20
2024-01-22T04:14:07.769Z,76.22
2024-01-22T04:15:07.857Z,73.73
2024-01-22T04:16:07.913Z,71.66
2024-01-22T04:17:07.973Z,74.12
2024-01-22T04:18:08.218Z,76.73
2024-01-22T04:19:08.229Z,73.29
2024-01-22T04:20:08.212Z,71.68
2024-01-22T04:21:08.299Z,76.18
2024-01-22T04:22:08.333Z,71.98
2024-01-22T04:23:08.416Z,74.17
2024-01-22T04:24:08.576Z,72.68
2024-01-22T04:25:08.524Z,72.15
2024-01-22T04:26:08.570Z,74.94
2024-01-22T04:27:08.704Z,74.85
2024-01-22T04:28:08.694Z,71.86
2024-01-22T04:29:08.728Z,74.36
2024-01-22T04:30:08.835Z,73.72
2024-01-22T04:31:08.878Z,71.49
2024-01-22T04:32:09.006Z,74.98
2024-01-22T04:33:09.115Z,75.19
2024-01-22T04:34:09.086Z,74.97
2024-01-22T04:35:09.048Z,73.36
2024-01-22T04:36:09.168Z,74.50
2024-01-22T04:37:09.140Z,73.68
2024-01-22T04:38:09.209Z,73.90
2024-01-22T04:39:09.254Z,72.46
2024-01-22T04:40:09.287Z,74.13
2024-01-22T04:41:09.361Z,73.16
2024-01-22T04:42:09.422Z,74.54
2024-01-22T04:43:09.444Z,74.74
2024-01-22T04:44:09.471Z,74.37
2024-01-22T04:45:09.605Z,75.88
2024-01-22T04:46:09.532Z,71.70
2024-01-22T04:47:09.590Z,72.15
2024-01-22T04:48:16.981Z,50.00
2024-01-22T04:49:16.951Z,50.00
2024-01-22T04:50:16.911Z,50.00
2024-01-22T04:51:16.967Z,50.00
2024-01-22T04:52:16.931Z,50.00
2024-01-22T04:53:16.902Z,50.81
2024-01-22T04:54:16.957Z,51.61
2024-01-22T04:55:21.173Z,50.77
2024-01-22T04:56:17.921Z,50.94
2024-01-22T04:57:16.969Z,51.24
2024-01-22T04:58:16.956Z,51.58
2024-01-22T04:59:16.944Z,52.22
2024-01-22T05:00:16.957Z,53.79
2024-01-22T05:01:16.961Z,51.55
2024-01-22T05:02:16.925Z,52.45
2024-01-22T05:03:17.044Z,49.52
2024-01-22T05:04:16.993Z,52.21
2024-01-22T05:05:17.097Z,55.53
2024-01-22T05:06:17.037Z,50.48
2024-01-22T05:07:16.896Z,49.08
2024-01-22T05:08:16.925Z,53.84
2024-01-22T05:09:16.965Z,53.18
2024-01-22T05:10:16.947Z,57.10
2024-01-22T05:11:16.924Z,60.52
2024-01-22T05:12:16.952Z,62.37
2024-01-22T05:13:16.932Z,57.20
2024-01-22T05:14:16.910Z,55.26
2024-01-22T05:15:17.123Z,53.06
2024-01-22T05:16:16.916Z,53.86
2024-01-22T05:17:16.938Z,54.12
2024-01-22T05:18:17.568Z,57.07
2024-01-22T05:19:17.062Z,55.51
2024-01-22T05:20:16.969Z,56.03
2024-01-22T05:21:17.092Z,54.66
2024-01-22T05:22:17.032Z,55.50
2024-01-22T05:23:17.058Z,58.46
2024-01-22T05:24:17.173Z,56.71
2024-01-22T05:25:17.045Z,54.99
2024-01-22T05:26:17.083Z,54.50
2024-01-22T05:27:17.227Z,56.33
2024-01-22T05:28:17.135Z,54.70
2024-01-22T05:29:17.126Z,55.80
2024-01-22T05:30:17.280Z,55.10
2024-01-22T05:31:17.170Z,54.43
2024-01-22T05:32:17.203Z,53.71
2024-01-22T05:33:17.277Z,56.69
2024-01-22T05:34:17.334Z,52.42
2024-01-22T05:35:17.217Z,52.58
2024-01-22T05:36:17.352Z,52.19
2024-01-22T05:37:17.246Z,51.83
2024-01-22T05:38:17.281Z,53.15
2024-01-22T05:39:17.333Z,55.58
2024-01-22T05:40:17.264Z,54.53
2024-01-22T05:41:17.268Z,56.35
2024-01-22T05:42:17.335Z,56.20
2024-01-22T05:43:17.333Z,54.10
2024-01-22T05:44:18.017Z,56.50
2024-01-22T05:45:17.485Z,53.15
2024-01-22T05:46:17.319Z,56.00
2024-01-22T05:47:17.336Z,54.03
2024-01-22T05:48:17.550Z,55.31
2024-01-22T05:49:17.477Z,53.92
2024-01-22T05:50:17.350Z,55.12
2024-01-22T05:51:17.485Z,54.30
2024-01-22T05:52:17.412Z,52.71
2024-01-22T05:53:17.452Z,50.97
2024-01-22T05:54:17.422Z,50.00
2024-01-22T05:55:19.483Z,50.00
2024-01-22T05:56:17.495Z,50.47
2024-01-22T05:57:17.581Z,50.00
2024-01-22T05:58:17.582Z,50.76
2024-01-22T05:59:17.613Z,50.68
2024-01-22T06:00:17.737Z,52.22
2024-01-22T06:01:18.781Z,50.00
2024-01-22T06:02:17.799Z,50.95
2024-01-22T06:03:17.946Z,52.54
2024-01-22T06:04:17.994Z,50.86
2024-01-22T06:05:17.941Z,50.00
2024-01-22T06:06:18.059Z,51.84
2024-01-22T06:07:18.133Z,53.56
2024-01-22T06:08:18.096Z,51.49
2024-01-22T06:09:18.251Z,51.63
2024-01-22T06:10:18.300Z,51.47
2024-01-22T06:11:18.199Z,50.89
2024-01-22T06:12:18.305Z,51.19
2024-01-22T06:13:18.260Z,52.03
2024-01-22T06:14:18.288Z,53.99
2024-01-22T06:15:18.382Z,54.13
2024-01-22T06:16:18.332Z,52.62
2024-01-22T06:17:18.374Z,53.76
2024-01-22T06:18:18.442Z,57.79
2024-01-22T06:19:18.465Z,58.25
2024-01-22T06:20:18.441Z,60.75
2024-01-22T06:21:18.497Z,56.51
2024-01-22T06:22:18.605Z,59.02
2024-01-22T06:23:18.570Z,55.82
2024-01-22T06:24:18.748Z,56.09
2024-01-22T06:25:18.575Z,57.45
2024-01-22T06:26:18.865Z,61.68
2024-01-22T06:27:18.806Z,61.77
2024-01-22T06:28:18.635Z,63.82
2024-01-22T06:29:18.613Z,60.96
2024-01-22T06:30:18.707Z,69.67
2024-01-22T06:31:18.758Z,68.36
2024-01-22T06:32:18.802Z,72.88
2024-01-22T06:33:18.879Z,66.84
2024-01-22T06:34:19.025Z,67.29
2024-01-22T06:35:18.764Z,73.18
2024-01-22T06:36:19.000Z,82.80
2024-01-22T06:37:18.890Z,82.04
2024-01-22T06:38:18.945Z,82.72
2024-01-22T06:39:19.155Z,84.40
2024-01-22T06:40:19.079Z,88.80
2024-01-22T06:41:19.149Z,79.87
2024-01-22T06:42:27.465Z,74.46
2024-01-22T06:43:20.233Z,74.50
2024-01-22T06:44:21.122Z,75.84
2024-01-22T06:45:19.259Z,78.77
2024-01-22T06:46:19.235Z,78.58
2024-01-22T06:47:19.223Z,81.02
2024-01-22T06:48:19.369Z,82.01
2024-01-22T06:49:19.498Z,84.98
2024-01-22T06:50:19.281Z,78.83
2024-01-22T06:51:27.011Z,78.21
2024-01-22T06:52:20.255Z,78.24
2024-01-22T06:53:19.257Z,79.12
2024-01-22T06:54:20.857Z,82.56
2024-01-22T06:55:19.219Z,83.65
2024-01-22T06:56:19.220Z,94.36
2024-01-22T06:57:19.368Z,108.44
2024-01-22T06:58:19.227Z,113.66
2024-01-22T06:59:19.241Z,114.88
2024-01-22T07:00:19.275Z,113.73
2024-01-22T07:01:19.282Z,112.20
2024-01-22T07:02:19.246Z,104.79
2024-01-22T07:03:19.267Z,106.36
2024-01-22T07:04:19.296Z,99.33
2024-01-22T07:05:19.308Z,95.33
2024-01-22T07:06:22.231Z,99.03
2024-01-22T07:07:19.256Z,99.21
2024-01-22T07:08:19.279Z,99.81
2024-01-22T07:09:19.284Z,102.55
2024-01-22T07:10:19.257Z,105.96
2024-01-22T07:11:19.258Z,111.31
2024-01-22T07:12:19.317Z,115.85
2024-01-22T07:13:19.277Z,115.87
2024-01-22T07:14:19.263Z,119.16
2024-01-22T07:15:19.461Z,120.70
2024-01-22T07:16:19.254Z,123.20
2024-01-22T07:17:19.248Z,122.02
2024-01-22T07:18:19.483Z,124.01
2024-01-22T07:19:19.445Z,126.56
2024-01-22T07:20:19.273Z,130.68
2024-01-22T07:21:19.427Z,129.52
2024-01-22T07:22:19.285Z,129.21
2024-01-22T07:23:19.288Z,131.47
2024-01-22T07:24:19.362Z,133.04
2024-01-22T07:25:19.266Z,134.34
2024-01-22T07:26:19.252Z,140.78
2024-01-22T07:27:19.324Z,139.72
2024-01-22T07:28:19.599Z,138.19
2024-01-22T07:29:19.288Z,139.68
2024-01-22T07:30:19.330Z,141.79
2024-01-22T07:31:19.305Z,145.82
2024-01-22T07:32:19.269Z,147.99
2024-01-22T07:33:19.392Z,147.27
2024-01-22T07:34:19.443Z,149.27
2024-01-22T07:35:19.361Z,153.03
2024-01-22T07:36:19.529Z,153.42
2024-01-22T07:37:19.548Z,152.41
2024-01-22T07:38:19.527Z,156.23
2024-01-22T07:39:19.649Z,161.56
2024-01-22T07:40:19.644Z,163.90
2024-01-22T07:41:19.692Z,165.27
2024-01-22T07:42:19.753Z,166.07
2024-01-22T07:43:19.733Z,167.43
2024-01-22T07:44:19.738Z,168.87
2024-01-22T07:45:20.941Z,171.82
2024-01-22T07:46:19.851Z,168.96
2024-01-22T07:47:21.568Z,167.81
2024-01-22T07:48:19.934Z,161.38
2024-01-22T07:49:19.957Z,164.96
2024-01-22T07:50:19.831Z,166.37
2024-01-22T07:51:19.946Z,170.04
2024-01-22T07:52:19.842Z,175.18
2024-01-22T07:53:19.830Z,186.95
2024-01-22T07:54:19.849Z,191.84
2024-01-22T07:55:19.931Z,193.37
2024-01-22T07:56:19.837Z,192.88
2024-01-22T07:57:19.896Z,193.53
2024-01-22T07:58:19.843Z,189.11
2024-01-22T07:59:19.863Z,186.80
2024-01-22T08:00:19.868Z,180.96
2024-01-22T08:01:19.909Z,182.59
2024-01-22T08:02:19.860Z,186.77
2024-01-22T08:03:19.920Z,188.73
2024-01-22T08:04:19.883Z,185.31
2024-01-22T08:05:19.856Z,185.09
2024-01-22T08:06:19.899Z,185.18
2024-01-22T08:07:20.895Z,187.81
2024-01-22T08:08:19.845Z,186.71
2024-01-22T08:09:19.948Z,186.69
2024-01-22T08:10:19.849Z,186.69
2024-01-22T08:11:19.848Z,187.11
2024-01-22T08:12:19.951Z,185.61
2024-01-22T08:13:19.833Z,185.86
2024-01-22T08:14:19.836Z,183.30
2024-01-22T08:15:19.874Z,185.81
2024-01-22T08:16:19.889Z,185.82
2024-01-22T08:17:19.873Z,185.39
2024-01-22T08:18:19.964Z,184.60
2024-01-22T08:19:19.976Z,184.40
2024-01-22T08:20:20.432Z,183.65
2024-01-22T08:21:19.965Z,181.29
2024-01-22T08:22:19.876Z,182.64
2024-01-22T08:23:19.853Z,183.66
2024-01-22T08:24:19.914Z,182.34
2024-01-22T08:25:19.869Z,185.24
2024-01-22T08:26:19.844Z,184.32
2024-01-22T08:27:19.965Z,185.25
2024-01-22T08:28:19.978Z,183.30
2024-01-22T08:29:20.045Z,181.23
2024-01-22T08:30:20.166Z,181.60
2024-01-22T08:31:21.100Z,178.69
2024-01-22T08:32:20.181Z,181.35
2024-01-22T08:33:20.477Z,180.73
2024-01-22T08:34:20.440Z,179.09
2024-01-22T08:35:20.607Z,178.19
2024-01-22T08:36:20.481Z,178.68
2024-01-22T08:37:20.514Z,178.83
2024-01-22T08:38:20.579Z,178.57
2024-01-22T08:39:20.711Z,178.80
2024-01-22T08:40:20.723Z,175.16
2024-01-22T08:41:20.796Z,174.84
2024-01-22T08:42:20.854Z,176.95
2024-01-22T08:43:20.831Z,180.09
2024-01-22T08:44:20.768Z,184.36
2024-01-22T08:45:20.893Z,181.23
2024-01-22T08:46:20.915Z,185.69
2024-01-22T08:47:21.012Z,189.50
2024-01-22T08:48:21.164Z,190.84
2024-01-22T08:49:21.184Z,196.62
2024-01-22T08:50:21.209Z,195.83
2024-01-22T08:51:21.295Z,200.11
2024-01-22T08:52:21.340Z,193.77
2024-01-22T08:53:21.423Z,194.98
2024-01-22T08:54:21.595Z,197.88
2024-01-22T08:55:21.534Z,198.46
2024-01-22T08:56:21.627Z,198.18
2024-01-22T08:57:21.748Z,198.77
2024-01-22T08:58:21.789Z,192.13
2024-01-22T08:59:21.804Z,193.41
2024-01-22T09:00:21.998Z,192.90
2024-01-22T09:01:22.009Z,192.11
2024-01-22T09:02:22.009Z,194.95
2024-01-22T09:03:22.090Z,195.68
2024-01-22T09:04:22.180Z,190.60
2024-01-22T09:05:22.273Z,195.68
2024-01-22T09:06:22.305Z,191.51
2024-01-22T09:07:22.328Z,192.71
2024-01-22T09:08:22.393Z,198.25
2024-01-22T09:09:22.528Z,199.02
2024-01-22T09:10:22.527Z,195.35
2024-01-22T09:11:22.622Z,195.05
2024-01-22T09:12:22.746Z,197.23
2024-01-22T09:13:22.749Z,198.65
2024-01-22T09:14:22.806Z,197.82
2024-01-22T09:15:22.933Z,199.73
2024-01-22T09:16:22.967Z,197.22
2024-01-22T09:17:22.996Z,198.76
2024-01-22T09:18:23.183Z,199.02
2024-01-22T09:19:23.183Z,198.88
2024-01-22T09:20:23.212Z,199.06
2024-01-22T09:21:23.244Z,198.48
2024-01-22T09:22:23.281Z,198.38
2024-01-22T09:23:23.423Z,197.33
2024-01-22T09:24:23.413Z,199.34
2024-01-22T09:25:23.480Z,199.34
2024-01-22T09:26:23.543Z,199.15
2024-01-22T09:27:23.633Z,195.98
2024-01-22T09:28:23.689Z,197.15
2024-01-22T09:29:23.749Z,196.80
2024-01-22T09:30:23.834Z,195.80
2024-01-22T09:31:23.831Z,197.78
2024-01-22T09:32:23.974Z,196.64
2024-01-22T09:33:24.021Z,197.87
2024-01-22T09:34:24.146Z,196.94
2024-01-22T09:35:24.131Z,198.91
2024-01-22T09:36:24.177Z,193.39
2024-01-22T09:37:24.236Z,195.55
2024-01-22T09:38:24.329Z,193.50
2024-01-22T09:39:24.370Z,195.82
2024-01-22T09:40:28.452Z,193.90
2024-01-22T09:41:25.466Z,193.93
2024-01-22T09:42:24.479Z,194.36
2024-01-22T09:43:24.431Z,194.80
2024-01-22T09:44:24.410Z,197.57
2024-01-22T09:45:24.427Z,203.45
2024-01-22T09:46:24.422Z,199.47
2024-01-22T09:47:24.432Z,199.84
2024-01-22T09:48:24.495Z,198.80
2024-01-22T09:49:24.620Z,199.46
2024-01-22T09:50:24.421Z,199.88
2024-01-22T09:51:24.457Z,198.41
2024-01-22T09:52:31.106Z,198.27
2024-01-22T09:53:24.481Z,198.48
2024-01-22T09:54:24.520Z,199.13
2024-01-22T09:55:24.430Z,200.85
2024-01-22T09:56:24.438Z,203.33
2024-01-22T09:57:24.513Z,206.93
2024-01-22T09:58:24.420Z,197.53
2024-01-22T09:59:24.409Z,199.71
2024-01-22T10:00:24.422Z,197.54
2024-01-22T10:01:24.429Z,200.00
2024-01-22T10:02:24.462Z,199.84
2024-01-22T10:03:24.752Z,200.00
2024-01-22T10:04:24.505Z,198.11
2024-01-22T10:05:24.564Z,198.48
2024-01-22T10:06:24.487Z,193.10
2024-01-22T10:07:24.425Z,189.17
2024-01-22T10:08:24.435Z,184.68
2024-01-22T10:09:24.534Z,185.57
2024-01-22T10:10:24.466Z,187.86
2024-01-22T10:11:24.435Z,192.26
2024-01-22T10:12:24.457Z,192.73
2024-01-22T10:13:24.445Z,190.33
2024-01-22T10:14:24.458Z,188.58
2024-01-22T10:15:24.602Z,185.14
2024-01-22T10:16:24.445Z,177.71
2024-01-22T10:17:24.504Z,178.05
2024-01-22T10:18:24.525Z,175.46
2024-01-22T10:19:24.544Z,174.45
2024-01-22T10:20:24.463Z,176.26
2024-01-22T10:21:24.603Z,176.79
2024-01-22T10:22:24.435Z,173.96
2024-01-22T10:23:24.479Z,177.91
2024-01-22T10:24:24.507Z,176.09
2024-01-22T10:25:24.467Z,175.31
2024-01-22T10:26:24.460Z,171.91
2024-01-22T10:27:24.557Z,173.88
2024-01-22T10:28:24.454Z,169.91
2024-01-22T10:29:24.463Z,170.58
2024-01-22T10:30:24.536Z,169.81
2024-01-22T10:31:24.424Z,172.22
2024-01-22T10:32:24.455Z,169.66
2024-01-22T10:33:24.625Z,168.82
2024-01-22T10:34:24.525Z,168.14
2024-01-22T10:35:24.457Z,164.55
2024-01-22T10:36:24.513Z,168.14
2024-01-22T10:37:24.441Z,165.64
2024-01-22T10:38:24.485Z,162.07
2024-01-22T10:39:24.502Z,161.70
2024-01-22T10:40:24.459Z,165.52
2024-01-22T10:41:24.484Z,161.21
2024-01-22T10:42:24.517Z,162.80
2024-01-22T10:43:24.488Z,163.57
2024-01-22T10:44:24.468Z,159.66
2024-01-22T10:45:24.669Z,161.74
2024-01-22T10:46:24.500Z,157.82
2024-01-22T10:47:24.502Z,160.39
2024-01-22T10:48:32.349Z,158.99
2024-01-22T10:49:25.593Z,159.11
2024-01-22T10:50:24.645Z,159.51
2024-01-22T10:51:24.516Z,160.11
2024-01-22T10:52:24.463Z,162.84
2024-01-22T10:53:24.491Z,165.78
2024-01-22T10:54:24.503Z,170.23
2024-01-22T10:55:24.568Z,170.34
2024-01-22T10:56:24.463Z,171.05
2024-01-22T10:57:24.507Z,171.46
2024-01-22T10:58:24.494Z,171.83
2024-01-22T10:59:24.462Z,169.27
2024-01-22T11:00:24.495Z,166.77
2024-01-22T11:01:24.626Z,165.62
2024-01-22T11:02:24.474Z,166.41
2024-01-22T11:03:24.526Z,161.96
2024-01-22T11:04:24.533Z,158.85
2024-01-22T11:05:24.540Z,158.96
2024-01-22T11:06:24.634Z,160.06
2024-01-22T11:07:24.481Z,161.57
2024-01-22T11:08:24.516Z,161.73
2024-01-22T11:09:24.554Z,159.85
2024-01-22T11:10:24.482Z,164.01
2024-01-22T11:11:24.509Z,164.19
2024-01-22T11:12:24.532Z,162.58
2024-01-22T11:13:24.512Z,166.49
2024-01-22T11:14:24.483Z,164.25
2024-01-22T11:15:24.567Z,164.36
2024-01-22T11:16:24.656Z,162.63
2024-01-22T11:17:24.516Z,163.26
2024-01-22T11:18:24.616Z,165.08
2024-01-22T11:19:24.670Z,162.27
2024-01-22T11:20:24.561Z,161.91
2024-01-22T11:21:24.625Z,161.88
2024-01-22T11:22:24.729Z,164.11
2024-01-22T11:23:24.798Z,161.19
2024-01-22T11:24:24.938Z,163.22
2024-01-22T11:25:24.896Z,162.58
2024-01-22T11:26:24.985Z,158.06
2024-01-22T11:27:25.122Z,160.45
2024-01-22T11:28:25.124Z,160.83
2024-01-22T11:29:25.163Z,162.96
2024-01-22T11:30:25.311Z,160.05
2024-01-22T11:31:25.269Z,160.98
2024-01-22T11:32:25.400Z,161.63
2024-01-22T11:33:25.652Z,163.85
2024-01-22T11:34:25.510Z,162.45
2024-01-22T11:35:25.819Z,164.48
2024-01-22T11:36:25.698Z,162.36
2024-01-22T11:37:25.671Z,162.66
2024-01-22T11:38:25.725Z,161.66
2024-01-22T11:39:25.833Z,163.74
2024-01-22T11:40:25.811Z,164.42
2024-01-22T11:41:25.880Z,168.84
2024-01-22T11:42:25.931Z,173.95
2024-01-22T11:43:25.991Z,172.92
2024-01-22T11:44:25.989Z,169.52
2024-01-22T11:45:30.233Z,170.25
2024-01-22T11:46:27.061Z,168.31
2024-01-22T11:47:26.074Z,168.65
2024-01-22T11:48:26.107Z,170.12
2024-01-22T11:49:26.059Z,174.19
2024-01-22T11:50:26.056Z,176.72
2024-01-22T11:51:26.044Z,174.18
2024-01-22T11:52:26.097Z,174.06
2024-01-22T11:53:26.021Z,172.18
2024-01-22T11:54:27.119Z,170.62
2024-01-22T11:55:26.013Z,169.51
2024-01-22T11:56:26.027Z,168.77
2024-01-22T11:57:26.151Z,170.61
2024-01-22T11:58:26.062Z,172.76
2024-01-22T11:59:26.083Z,169.74
2024-01-22T12:00:26.335Z,169.14
2024-01-22T12:01:26.206Z,169.89
2024-01-22T12:02:26.233Z,168.81
2024-01-22T12:03:26.489Z,170.50
2024-01-22T12:04:26.351Z,171.95
2024-01-22T12:05:26.380Z,173.49
2024-01-22T12:06:26.473Z,172.77
2024-01-22T12:07:26.468Z,166.14
2024-01-22T12:08:26.516Z,167.18
2024-01-22T12:09:26.725Z,166.09
2024-01-22T12:10:26.833Z,166.02
2024-01-22T12:11:26.651Z,168.23
2024-01-22T12:12:26.752Z,169.59
2024-01-22T12:13:26.779Z,168.05
2024-01-22T12:14:26.827Z,166.00
2024-01-22T12:15:27.042Z,166.55
2024-01-22T12:16:26.919Z,165.29
2024-01-22T12:17:26.944Z,165.92
2024-01-22T12:18:27.117Z,167.38
2024-01-22T12:19:27.030Z,165.59
2024-01-22T12:20:27.114Z,165.15
2024-01-22T12:21:27.114Z,164.19
2024-01-22T12:22:27.097Z,161.21
2024-01-22T12:23:27.167Z,166.82
2024-01-22T12:24:27.150Z,163.95
2024-01-22T12:25:27.140Z,163.87
2024-01-22T12:26:27.116Z,158.20
2024-01-22T12:27:27.184Z,159.14
2024-01-22T12:28:27.176Z,159.41
2024-01-22T12:29:27.567Z,162.55
2024-01-22T12:30:27.208Z,162.59
2024-01-22T12:31:27.141Z,162.66
2024-01-22T12:32:27.158Z,161.70
2024-01-22T12:33:28.985Z,161.92
2024-01-22T12:34:27.382Z,162.68
2024-01-22T12:35:27.377Z,165.01
2024-01-22T12:36:27.498Z,164.96
2024-01-22T12:37:27.450Z,167.29
2024-01-22T12:38:27.441Z,170.53
2024-01-22T12:39:27.508Z,171.86
2024-01-22T12:40:27.566Z,172.58
2024-01-22T12:41:27.465Z,167.78
2024-01-22T12:42:27.507Z,169.80